x

South Brooks (46132) Wave Buoy

6:00 - Sat 27th Dec 2014 All times are PST. -8 hours from GMT.

  • Sig Wave height 18.4ft
  • Peak Period 12s
  • Wind
    34mph, 43mph gusts
  • Sea Temp 52°f
  • Luft Temp 49°f
  • Sea Pressure 1020mb
  • South Brooks
  • South Brooks

More Historic Weather Station data

Upgrade to MSW Pro to gain access to the past 30 days of data for over 8000 Wavebouys and Weather Stations around the globe.

Join Pro

Comparision Forecast

View Surf forecast
   
Sa 12/27 6:00 18.5ft 12s 34 43 mph 1020mb 52f 49f
5:00 19ft 14s 31 40 mph 1019.5mb 52f 49f
4:00 17ft 11s 31
mph
1019.2mb 52f 48f
2:00 17ft 11s 29 36 mph 1017.8mb 52f 49f
1:00  -   -  29
mph
- - 49f
12:00 15.5ft 10s 27 34 mph 1017.2mb 52f 49f
11:00 14ft 9s 29 36 mph 1017.1mb 52f 49f
10:00 13ft 14s 27 31 mph 1017.5mb 52f 48f
9:00 13ft 14s 27 34 mph 1017.9mb 51f 47f
8:00 13ft 14s 27 34 mph 1017.8mb 51f 49f
7:00 12ft 14s 22 29 mph 1018.2mb 51f 49f
6:00 12.5ft 14s 25 34 mph 1018.1mb 51f 49f
5:00 12ft 14s 27 40 mph 1018.3mb 51f 48f
4:00 12.5ft 14s 20 27 mph 1019.2mb 51f 50f
3:00 12ft 14s 20 25 mph 1020.3mb 51f 50f
2:00 12.5ft 12s 20 25 mph 1021.4mb 52f 49f
1:00 11.5ft 14s 18 22 mph 1022mb 52f 49f
12:00 12ft 14s 16 18 mph 1022.8mb 52f 49f
Fr 12/26 11:00 10.5ft 14s 11 16 mph 1023.4mb 52f 49f
10:00 11ft 14s 16 20 mph 1023.6mb 51f 50f
9:00 10.5ft 13s 13 22 mph 1024.3mb 51f 49f
8:00 11ft 14s 9 13 mph 1024mb 51f 49f
7:00 11ft 14s 7 11 mph 1024.4mb 51f 49f
6:00 10.5ft 13s 7 9 mph 1024.8mb 51f 49f
5:00 11ft 14s 4 9 mph 1025.1mb 51f 49f
4:00 11ft 14s 4 9 mph 1025.3mb 51f 49f
3:00 11.5ft 13s 7 9 mph 1024.9mb 51f 49f
2:00 12ft 11s 9 11 mph 1025mb 51f 48f
1:00 11ft 13s 13 18 mph 1025mb 51f 49f
12:00 10ft 12s 13 20 mph 1025.6mb 51f 48f
11:00 10ft 12s 13 16 mph 1026.2mb 51f 49f
10:00 8ft 11s 11 16 mph 1026.3mb 51f 49f
9:00 8.5ft 12s 9 13 mph 1026.2mb 51f 49f
8:00 8ft 12s 7 9 mph 1026mb 51f 48f
7:00 9ft 11s 7 9 mph 1025.8mb 51f 48f
6:00 9ft 12s 7 11 mph 1025.7mb 51f 48f
5:00 9ft 11s 9 13 mph 1025.5mb 51f 47f
4:00 9ft 11s 7 11 mph 1025.5mb 51f 47f
3:00 9ft 11s 9 11 mph 1025.4mb 51f 47f
2:00 9.5ft 10s 11 16 mph 1024.7mb 51f 47f
1:00 10ft 12s 9 13 mph 1024.6mb 51f 47f
12:00 8.5ft 10s 11 13 mph 1024.5mb 51f 47f
Do 12/25 11:00 8ft 10s 7 9 mph 1024.4mb 51f 49f
10:00 8.5ft 10s 7 9 mph 1024mb 51f 48f
9:00 7.5ft 9s 9 11 mph 1023.7mb 52f 48f
8:00 7.5ft 9s 9 11 mph 1023.6mb 51f 48f
7:00 8ft 8s 7 9 mph 1023.6mb 52f 48f
6:00 8ft 10s 4 9 mph 1023.3mb 52f 48f
5:00 7ft 9s 9 11 mph 1022.9mb 52f 48f
4:00 8ft 10s 9 11 mph 1022.5mb 52f 49f
3:00 8ft 10s 9 11 mph 1022mb 52f 49f
2:00 9ft 10s 11 16 mph 1021.7mb 52f 49f
1:00 8ft 10s  -  4 mph 1021.9mb 52f 48f
12:00 8.5ft 10s 9 11 mph 1022mb 52f 47f
11:00 9.5ft 11s 11 16 mph 1022.1mb 53f 47f
10:00 9ft 11s 2 7 mph 1022.3mb 53f 48f
9:00 10.5ft 10s 4 9 mph 1021.9mb 53f 48f
8:00 10.5ft 9s 9 11 mph 1021.2mb 53f 48f
7:00 11ft 10s 11 13 mph 1021.2mb 53f 48f
6:00 10ft 11s 16 18 mph 1021.2mb 53f 48f
5:00 11ft 10s 16 20 mph 1020.9mb 53f 48f
4:00 12ft 11s 18 22 mph 1020.8mb 53f 49f
3:00 12.5ft 11s 20 25 mph 1020.9mb 53f 49f
2:00 12ft 9s 20 27 mph 1020.6mb 53f 49f
1:00 13ft 11s 18 25 mph 1020.3mb 53f 48f
12:00 13ft 10s 18 22 mph 1020.4mb 53f 48f
Mi 12/24 11:00 14ft 11s 22 27 mph 1020.4mb 53f 48f
10:00 15ft 12s 20 25 mph 1019.6mb 53f 48f
9:00 16ft 12s 25 29 mph 1019.3mb 53f 49f
8:00 15.5ft 12s 27 31 mph 1019.2mb 53f 49f
7:00 15.5ft 12s 25 31 mph 1018.9mb 53f 49f
6:00 16ft 13s 27 34 mph 1018.2mb 52f 49f
5:00 16.5ft 11s 27 36 mph 1017.7mb 51f 48f
4:00 17.5ft 13s 29 34 mph 1016.9mb 51f 49f
3:00 17ft 12s 29 36 mph 1015.9mb 51f 50f
2:00 17.5ft 12s 29 38 mph 1015.3mb 51f 50f
1:00 18ft 11s 29 45 mph 1015mb 51f 49f
12:00 17.5ft 13s 31 38 mph 1014.8mb 51f 50f
11:00 17.5ft 14s 31 40 mph 1014.6mb 51f 50f
10:00 16.5ft 13s 27 38 mph 1014.3mb 51f 49f
9:00 18.5ft 13s 29 38 mph 1013.6mb 51f 48f
8:00 21ft 14s 31 43 mph 1013.2mb 52f 46f
7:00 19.5ft 14s 22 34 mph 1012.9mb 52f 48f
6:00 20ft 13s 29 40 mph 1012.2mb 52f 48f
5:00 20ft 14s 29 36 mph 1012mb 52f 47f
4:00 19.5ft 15s 20 25 mph 1012.1mb 51f 48f